sensor_id;sensor_type;location;lat;lon;timestamp;P1;durP1;ratioP1;P2;durP2;ratioP2
75005;SDS011;63553;51.814;4.600;2023-03-03T00:02:06;4.07;;;3.10;;
75005;SDS011;63553;51.814;4.600;2023-03-03T00:04:31;3.53;;;3.03;;
75005;SDS011;63553;51.814;4.600;2023-03-03T00:06:57;4.32;;;3.30;;
75005;SDS011;63553;51.814;4.600;2023-03-03T00:09:22;4.25;;;3.30;;
75005;SDS011;63553;51.814;4.600;2023-03-03T00:11:49;3.97;;;3.43;;
75005;SDS011;63553;51.814;4.600;2023-03-03T00:14:25;3.78;;;3.20;;
75005;SDS011;63553;51.814;4.600;2023-03-03T00:16:54;4.20;;;3.28;;
75005;SDS011;63553;51.814;4.600;2023-03-03T00:19:20;3.85;;;2.70;;
75005;SDS011;63553;51.814;4.600;2023-03-03T00:21:47;2.83;;;2.58;;
75005;SDS011;63553;51.814;4.600;2023-03-03T00:24:22;3.33;;;3.03;;
75005;SDS011;63553;51.814;4.600;2023-03-03T00:26:50;5.28;;;3.15;;
75005;SDS011;63553;51.814;4.600;2023-03-03T00:31:58;4.57;;;2.53;;
75005;SDS011;63553;51.814;4.600;2023-03-03T00:34:40;3.33;;;2.63;;
75005;SDS011;63553;51.814;4.600;2023-03-03T00:42:45;2.92;;;2.60;;
75005;SDS011;63553;51.814;4.600;2023-03-03T00:45:56;2.72;;;2.50;;
75005;SDS011;63553;51.814;4.600;2023-03-03T00:48:15;3.15;;;2.53;;
75005;SDS011;63553;51.814;4.600;2023-03-03T00:50:42;3.03;;;2.72;;
75005;SDS011;63553;51.814;4.600;2023-03-03T00:53:14;2.88;;;2.65;;
75005;SDS011;63553;51.814;4.600;2023-03-03T00:55:41;2.97;;;2.70;;
75005;SDS011;63553;51.814;4.600;2023-03-03T00:58:07;2.75;;;2.53;;
75005;SDS011;63553;51.814;4.600;2023-03-03T01:00:33;2.65;;;2.45;;
75005;SDS011;63553;51.814;4.600;2023-03-03T01:03:03;3.13;;;2.70;;
75005;SDS011;63553;51.814;4.600;2023-03-03T01:05:30;2.65;;;2.45;;
75005;SDS011;63553;51.814;4.600;2023-03-03T01:07:55;2.75;;;2.55;;
75005;SDS011;63553;51.814;4.600;2023-03-03T01:10:21;3.25;;;2.75;;
75005;SDS011;63553;51.814;4.600;2023-03-03T01:12:46;2.83;;;2.53;;
75005;SDS011;63553;51.814;4.600;2023-03-03T01:15:12;3.13;;;2.70;;
75005;SDS011;63553;51.814;4.600;2023-03-03T01:17:40;2.40;;;2.20;;
75005;SDS011;63553;51.814;4.600;2023-03-03T01:20:07;3.55;;;2.42;;
75005;SDS011;63553;51.814;4.600;2023-03-03T01:22:34;2.22;;;2.10;;
75005;SDS011;63553;51.814;4.600;2023-03-03T01:24:59;2.30;;;2.08;;
75005;SDS011;63553;51.814;4.600;2023-03-03T01:27:24;3.33;;;2.47;;
75005;SDS011;63553;51.814;4.600;2023-03-03T01:29:51;2.80;;;2.40;;
75005;SDS011;63553;51.814;4.600;2023-03-03T01:32:17;2.00;;;1.90;;
75005;SDS011;63553;51.814;4.600;2023-03-03T01:34:42;2.63;;;2.43;;
75005;SDS011;63553;51.814;4.600;2023-03-03T01:37:07;2.27;;;2.17;;
75005;SDS011;63553;51.814;4.600;2023-03-03T01:39:33;3.30;;;2.33;;
75005;SDS011;63553;51.814;4.600;2023-03-03T01:41:58;2.30;;;2.10;;
75005;SDS011;63553;51.814;4.600;2023-03-03T01:44:23;2.30;;;2.10;;
75005;SDS011;63553;51.814;4.600;2023-03-03T01:52:25;2.40;;;2.20;;
75005;SDS011;63553;51.814;4.600;2023-03-03T01:54:58;1.98;;;1.83;;
75005;SDS011;63553;51.814;4.600;2023-03-03T01:57:32;2.35;;;2.03;;
75005;SDS011;63553;51.814;4.600;2023-03-03T02:00:01;2.35;;;2.15;;
75005;SDS011;63553;51.814;4.600;2023-03-03T02:02:29;1.88;;;1.77;;
75005;SDS011;63553;51.814;4.600;2023-03-03T02:04:56;1.98;;;1.88;;
75005;SDS011;63553;51.814;4.600;2023-03-03T02:07:22;2.20;;;2.00;;
75005;SDS011;63553;51.814;4.600;2023-03-03T02:09:54;3.25;;;2.75;;
75005;SDS011;63553;51.814;4.600;2023-03-03T02:12:25;2.38;;;2.08;;
75005;SDS011;63553;51.814;4.600;2023-03-03T02:14:57;3.65;;;2.40;;
75005;SDS011;63553;51.814;4.600;2023-03-03T02:17:22;3.03;;;2.50;;
75005;SDS011;63553;51.814;4.600;2023-03-03T02:20:10;3.70;;;2.53;;
75005;SDS011;63553;51.814;4.600;2023-03-03T02:28:13;2.92;;;2.50;;
75005;SDS011;63553;51.814;4.600;2023-03-03T02:30:39;4.20;;;2.65;;
75005;SDS011;63553;51.814;4.600;2023-03-03T02:33:05;3.20;;;2.17;;
75005;SDS011;63553;51.814;4.600;2023-03-03T02:35:32;2.95;;;2.65;;
75005;SDS011;63553;51.814;4.600;2023-03-03T02:38:03;2.95;;;2.60;;
75005;SDS011;63553;51.814;4.600;2023-03-03T02:40:36;2.92;;;2.10;;
75005;SDS011;63553;51.814;4.600;2023-03-03T02:43:08;2.80;;;2.50;;
75005;SDS011;63553;51.814;4.600;2023-03-03T02:45:40;2.67;;;2.47;;
75005;SDS011;63553;51.814;4.600;2023-03-03T02:48:07;2.45;;;2.25;;
75005;SDS011;63553;51.814;4.600;2023-03-03T02:50:32;3.87;;;2.63;;
75005;SDS011;63553;51.814;4.600;2023-03-03T02:52:57;2.90;;;2.57;;
75005;SDS011;63553;51.814;4.600;2023-03-03T02:55:22;2.50;;;2.30;;
75005;SDS011;63553;51.814;4.600;2023-03-03T02:57:48;3.22;;;2.50;;
75005;SDS011;63553;51.814;4.600;2023-03-03T03:00:13;3.47;;;2.80;;
75005;SDS011;63553;51.814;4.600;2023-03-03T03:02:39;3.25;;;2.70;;
75005;SDS011;63553;51.814;4.600;2023-03-03T03:05:04;3.50;;;2.37;;
75005;SDS011;63553;51.814;4.600;2023-03-03T03:07:30;2.88;;;2.40;;
75005;SDS011;63553;51.814;4.600;2023-03-03T03:09:55;4.60;;;2.63;;
75005;SDS011;63553;51.814;4.600;2023-03-03T03:12:20;2.40;;;2.20;;
75005;SDS011;63553;51.814;4.600;2023-03-03T03:14:46;3.33;;;2.97;;
75005;SDS011;63553;51.814;4.600;2023-03-03T03:17:11;3.33;;;3.03;;
75005;SDS011;63553;51.814;4.600;2023-03-03T03:19:37;4.35;;;2.40;;
75005;SDS011;63553;51.814;4.600;2023-03-03T03:22:02;2.22;;;2.13;;
75005;SDS011;63553;51.814;4.600;2023-03-03T03:24:28;3.43;;;2.70;;
75005;SDS011;63553;51.814;4.600;2023-03-03T03:26:53;3.33;;;2.63;;
75005;SDS011;63553;51.814;4.600;2023-03-03T03:29:18;3.67;;;2.60;;
75005;SDS011;63553;51.814;4.600;2023-03-03T03:31:44;3.57;;;3.13;;
75005;SDS011;63553;51.814;4.600;2023-03-03T03:34:09;3.70;;;2.50;;
75005;SDS011;63553;51.814;4.600;2023-03-03T03:36:34;3.45;;;2.78;;
75005;SDS011;63553;51.814;4.600;2023-03-03T03:39:00;4.17;;;3.03;;
75005;SDS011;63553;51.814;4.600;2023-03-03T03:41:26;3.97;;;2.95;;
75005;SDS011;63553;51.814;4.600;2023-03-03T03:43:52;4.57;;;3.28;;
75005;SDS011;63553;51.814;4.600;2023-03-03T03:46:17;4.90;;;3.53;;
75005;SDS011;63553;51.814;4.600;2023-03-03T03:48:43;4.88;;;3.53;;
75005;SDS011;63553;51.814;4.600;2023-03-03T03:51:09;4.80;;;3.53;;
75005;SDS011;63553;51.814;4.600;2023-03-03T03:53:36;4.95;;;3.63;;
75005;SDS011;63553;51.814;4.600;2023-03-03T03:56:01;3.97;;;3.37;;
75005;SDS011;63553;51.814;4.600;2023-03-03T03:58:26;4.57;;;3.70;;
75005;SDS011;63553;51.814;4.600;2023-03-03T04:00:52;5.38;;;3.40;;
75005;SDS011;63553;51.814;4.600;2023-03-03T04:03:17;4.72;;;3.35;;
75005;SDS011;63553;51.814;4.600;2023-03-03T04:05:43;4.07;;;3.42;;
75005;SDS011;63553;51.814;4.600;2023-03-03T04:08:08;4.47;;;3.20;;
75005;SDS011;63553;51.814;4.600;2023-03-03T04:10:34;4.53;;;3.53;;
75005;SDS011;63553;51.814;4.600;2023-03-03T04:12:59;4.57;;;3.63;;
75005;SDS011;63553;51.814;4.600;2023-03-03T04:15:24;5.45;;;3.47;;
75005;SDS011;63553;51.814;4.600;2023-03-03T04:17:50;5.40;;;3.70;;
75005;SDS011;63553;51.814;4.600;2023-03-03T04:20:15;4.57;;;3.60;;
75005;SDS011;63553;51.814;4.600;2023-03-03T04:22:41;5.28;;;4.03;;
75005;SDS011;63553;51.814;4.600;2023-03-03T04:25:07;5.82;;;3.72;;
75005;SDS011;63553;51.814;4.600;2023-03-03T04:27:34;5.47;;;3.53;;
75005;SDS011;63553;51.814;4.600;2023-03-03T04:30:00;5.38;;;3.50;;
75005;SDS011;63553;51.814;4.600;2023-03-03T04:32:26;5.28;;;3.88;;
75005;SDS011;63553;51.814;4.600;2023-03-03T04:34:52;4.85;;;3.60;;
75005;SDS011;63553;51.814;4.600;2023-03-03T04:37:18;5.63;;;3.72;;
75005;SDS011;63553;51.814;4.600;2023-03-03T04:39:44;5.00;;;3.45;;
75005;SDS011;63553;51.814;4.600;2023-03-03T04:42:09;4.43;;;3.07;;
75005;SDS011;63553;51.814;4.600;2023-03-03T04:44:34;4.07;;;2.93;;
75005;SDS011;63553;51.814;4.600;2023-03-03T04:47:00;4.87;;;2.93;;
75005;SDS011;63553;51.814;4.600;2023-03-03T04:49:25;4.10;;;2.90;;
75005;SDS011;63553;51.814;4.600;2023-03-03T04:51:50;3.75;;;2.92;;
75005;SDS011;63553;51.814;4.600;2023-03-03T04:54:16;3.77;;;2.97;;
75005;SDS011;63553;51.814;4.600;2023-03-03T04:56:41;5.00;;;3.05;;
75005;SDS011;63553;51.814;4.600;2023-03-03T04:59:07;4.32;;;3.20;;
75005;SDS011;63553;51.814;4.600;2023-03-03T05:01:32;4.95;;;3.67;;
75005;SDS011;63553;51.814;4.600;2023-03-03T05:03:57;5.13;;;3.45;;
75005;SDS011;63553;51.814;4.600;2023-03-03T05:06:23;5.07;;;3.57;;
75005;SDS011;63553;51.814;4.600;2023-03-03T05:08:48;6.27;;;3.90;;
75005;SDS011;63553;51.814;4.600;2023-03-03T05:11:13;4.83;;;3.37;;
75005;SDS011;63553;51.814;4.600;2023-03-03T05:13:39;4.57;;;3.40;;
75005;SDS011;63553;51.814;4.600;2023-03-03T05:16:04;4.45;;;3.38;;
75005;SDS011;63553;51.814;4.600;2023-03-03T05:18:30;69.30;;;20.20;;
75005;SDS011;63553;51.814;4.600;2023-03-03T05:20:56;28.27;;;8.25;;
75005;SDS011;63553;51.814;4.600;2023-03-03T05:23:21;26.65;;;7.32;;
75005;SDS011;63553;51.814;4.600;2023-03-03T05:25:47;20.63;;;8.07;;
75005;SDS011;63553;51.814;4.600;2023-03-03T05:28:13;23.02;;;7.32;;
75005;SDS011;63553;51.814;4.600;2023-03-03T05:30:39;18.80;;;6.45;;
75005;SDS011;63553;51.814;4.600;2023-03-03T05:33:05;16.92;;;6.43;;
75005;SDS011;63553;51.814;4.600;2023-03-03T05:35:31;18.65;;;6.47;;
75005;SDS011;63553;51.814;4.600;2023-03-03T05:37:56;18.73;;;6.97;;
75005;SDS011;63553;51.814;4.600;2023-03-03T05:40:22;17.48;;;6.45;;
75005;SDS011;63553;51.814;4.600;2023-03-03T05:42:49;12.05;;;5.00;;
75005;SDS011;63553;51.814;4.600;2023-03-03T05:45:14;9.32;;;4.85;;
75005;SDS011;63553;51.814;4.600;2023-03-03T05:47:39;11.27;;;5.33;;
75005;SDS011;63553;51.814;4.600;2023-03-03T05:50:05;12.60;;;4.80;;
75005;SDS011;63553;51.814;4.600;2023-03-03T05:52:30;11.80;;;5.32;;
75005;SDS011;63553;51.814;4.600;2023-03-03T05:54:56;7.00;;;4.30;;
75005;SDS011;63553;51.814;4.600;2023-03-03T05:57:21;9.55;;;4.70;;
75005;SDS011;63553;51.814;4.600;2023-03-03T05:59:47;10.30;;;4.32;;
75005;SDS011;63553;51.814;4.600;2023-03-03T06:02:12;9.52;;;4.95;;
75005;SDS011;63553;51.814;4.600;2023-03-03T06:04:38;8.25;;;4.20;;
75005;SDS011;63553;51.814;4.600;2023-03-03T06:07:04;9.32;;;4.45;;
75005;SDS011;63553;51.814;4.600;2023-03-03T06:09:29;8.05;;;4.65;;
75005;SDS011;63553;51.814;4.600;2023-03-03T06:11:56;8.05;;;4.65;;
75005;SDS011;63553;51.814;4.600;2023-03-03T06:14:21;8.73;;;4.53;;
75005;SDS011;63553;51.814;4.600;2023-03-03T06:16:47;7.30;;;3.72;;
75005;SDS011;63553;51.814;4.600;2023-03-03T06:19:13;8.82;;;3.55;;
75005;SDS011;63553;51.814;4.600;2023-03-03T06:21:39;6.82;;;3.70;;
75005;SDS011;63553;51.814;4.600;2023-03-03T06:24:05;6.20;;;3.90;;
75005;SDS011;63553;51.814;4.600;2023-03-03T06:26:31;3.90;;;2.95;;
75005;SDS011;63553;51.814;4.600;2023-03-03T06:28:57;5.00;;;3.40;;
75005;SDS011;63553;51.814;4.600;2023-03-03T06:31:22;5.50;;;3.40;;
75005;SDS011;63553;51.814;4.600;2023-03-03T06:33:48;7.35;;;3.83;;
75005;SDS011;63553;51.814;4.600;2023-03-03T06:36:15;5.97;;;3.38;;
75005;SDS011;63553;51.814;4.600;2023-03-03T06:38:40;4.53;;;3.33;;
75005;SDS011;63553;51.814;4.600;2023-03-03T06:41:06;3.73;;;2.07;;
75005;SDS011;63553;51.814;4.600;2023-03-03T06:43:33;6.53;;;2.33;;
75005;SDS011;63553;51.814;4.600;2023-03-03T06:45:58;5.07;;;2.35;;
75005;SDS011;63553;51.814;4.600;2023-03-03T06:48:24;2.65;;;2.05;;
75005;SDS011;63553;51.814;4.600;2023-03-03T06:50:49;5.47;;;2.97;;
75005;SDS011;63553;51.814;4.600;2023-03-03T06:53:16;4.43;;;2.37;;
75005;SDS011;63553;51.814;4.600;2023-03-03T06:55:42;6.45;;;2.97;;
75005;SDS011;63553;51.814;4.600;2023-03-03T06:58:18;4.18;;;2.58;;
75005;SDS011;63553;51.814;4.600;2023-03-03T07:00:49;4.00;;;2.80;;
75005;SDS011;63553;51.814;4.600;2023-03-03T07:03:21;4.47;;;3.10;;
75005;SDS011;63553;51.814;4.600;2023-03-03T07:05:48;3.20;;;2.90;;
75005;SDS011;63553;51.814;4.600;2023-03-03T07:08:15;6.75;;;3.05;;
75005;SDS011;63553;51.814;4.600;2023-03-03T07:10:42;6.03;;;3.10;;
75005;SDS011;63553;51.814;4.600;2023-03-03T07:15:40;5.70;;;3.08;;
75005;SDS011;63553;51.814;4.600;2023-03-03T07:18:06;5.47;;;3.20;;
75005;SDS011;63553;51.814;4.600;2023-03-03T07:20:47;4.13;;;2.85;;
75005;SDS011;63553;51.814;4.600;2023-03-03T07:23:16;3.45;;;2.60;;
75005;SDS011;63553;51.814;4.600;2023-03-03T07:25:46;4.93;;;3.15;;
75005;SDS011;63553;51.814;4.600;2023-03-03T07:28:23;6.57;;;2.92;;
75005;SDS011;63553;51.814;4.600;2023-03-03T07:30:52;5.88;;;2.83;;
75005;SDS011;63553;51.814;4.600;2023-03-03T07:33:24;5.35;;;3.08;;
75005;SDS011;63553;51.814;4.600;2023-03-03T07:35:55;11.70;;;3.42;;
75005;SDS011;63553;51.814;4.600;2023-03-03T07:38:39;4.07;;;2.90;;
75005;SDS011;63553;51.814;4.600;2023-03-03T07:41:10;5.32;;;3.25;;
75005;SDS011;63553;51.814;4.600;2023-03-03T07:43:40;4.10;;;2.67;;
75005;SDS011;63553;51.814;4.600;2023-03-03T07:48:52;8.30;;;3.97;;
75005;SDS011;63553;51.814;4.600;2023-03-03T07:53:51;8.30;;;3.22;;
75005;SDS011;63553;51.814;4.600;2023-03-03T07:58:53;13.52;;;3.90;;
75005;SDS011;63553;51.814;4.600;2023-03-03T08:03:51;180.32;;;22.88;;
75005;SDS011;63553;51.814;4.600;2023-03-03T08:09:01;16.30;;;7.20;;
75005;SDS011;63553;51.814;4.600;2023-03-03T08:14:24;21.60;;;8.80;;
75005;SDS011;63553;51.814;4.600;2023-03-03T08:16:51;21.70;;;8.73;;
75005;SDS011;63553;51.814;4.600;2023-03-03T08:19:17;19.50;;;7.55;;
75005;SDS011;63553;51.814;4.600;2023-03-03T08:21:43;15.13;;;7.38;;
75005;SDS011;63553;51.814;4.600;2023-03-03T08:24:09;25.08;;;8.00;;
75005;SDS011;63553;51.814;4.600;2023-03-03T08:26:34;17.50;;;8.27;;
75005;SDS011;63553;51.814;4.600;2023-03-03T08:28:59;20.42;;;8.38;;
75005;SDS011;63553;51.814;4.600;2023-03-03T08:31:25;16.58;;;7.15;;
75005;SDS011;63553;51.814;4.600;2023-03-03T08:33:50;17.00;;;7.40;;
75005;SDS011;63553;51.814;4.600;2023-03-03T08:36:16;16.90;;;8.00;;
75005;SDS011;63553;51.814;4.600;2023-03-03T08:38:42;15.55;;;7.80;;
75005;SDS011;63553;51.814;4.600;2023-03-03T08:41:07;16.15;;;7.25;;
75005;SDS011;63553;51.814;4.600;2023-03-03T08:43:33;17.70;;;7.07;;
75005;SDS011;63553;51.814;4.600;2023-03-03T08:45:59;17.15;;;7.53;;
75005;SDS011;63553;51.814;4.600;2023-03-03T08:48:26;16.23;;;7.03;;
75005;SDS011;63553;51.814;4.600;2023-03-03T08:50:52;16.55;;;7.05;;
75005;SDS011;63553;51.814;4.600;2023-03-03T08:53:18;14.40;;;7.20;;
75005;SDS011;63553;51.814;4.600;2023-03-03T08:55:45;15.23;;;7.10;;
75005;SDS011;63553;51.814;4.600;2023-03-03T08:58:11;16.30;;;7.28;;
75005;SDS011;63553;51.814;4.600;2023-03-03T09:00:37;16.65;;;7.63;;
75005;SDS011;63553;51.814;4.600;2023-03-03T09:03:03;13.27;;;6.70;;
75005;SDS011;63553;51.814;4.600;2023-03-03T09:05:31;13.27;;;6.60;;
75005;SDS011;63553;51.814;4.600;2023-03-03T09:07:57;13.95;;;6.55;;
75005;SDS011;63553;51.814;4.600;2023-03-03T09:10:23;14.27;;;6.82;;
75005;SDS011;63553;51.814;4.600;2023-03-03T09:12:55;13.32;;;6.35;;
75005;SDS011;63553;51.814;4.600;2023-03-03T09:15:29;11.40;;;6.22;;
75005;SDS011;63553;51.814;4.600;2023-03-03T09:17:57;15.50;;;6.50;;
75005;SDS011;63553;51.814;4.600;2023-03-03T09:20:46;12.90;;;6.35;;
75005;SDS011;63553;51.814;4.600;2023-03-03T09:25:48;12.35;;;5.95;;
75005;SDS011;63553;51.814;4.600;2023-03-03T09:28:18;9.68;;;5.85;;
75005;SDS011;63553;51.814;4.600;2023-03-03T09:30:51;12.30;;;5.75;;
75005;SDS011;63553;51.814;4.600;2023-03-03T09:33:22;15.27;;;5.25;;
75005;SDS011;63553;51.814;4.600;2023-03-03T09:36:20;12.82;;;5.68;;
75005;SDS011;63553;51.814;4.600;2023-03-03T09:49:08;7.07;;;4.10;;
75005;SDS011;63553;51.814;4.600;2023-03-03T09:52:02;11.82;;;4.57;;
75005;SDS011;63553;51.814;4.600;2023-03-03T09:57:15;7.95;;;4.68;;
75005;SDS011;63553;51.814;4.600;2023-03-03T09:59:56;8.20;;;4.75;;
75005;SDS011;63553;51.814;4.600;2023-03-03T10:02:30;12.40;;;5.85;;
75005;SDS011;63553;51.814;4.600;2023-03-03T10:07:45;9.63;;;5.30;;
75005;SDS011;63553;51.814;4.600;2023-03-03T10:10:16;8.73;;;4.82;;
75005;SDS011;63553;51.814;4.600;2023-03-03T10:47:54;5.80;;;3.33;;
75005;SDS011;63553;51.814;4.600;2023-03-03T10:53:32;6.35;;;3.70;;
75005;SDS011;63553;51.814;4.600;2023-03-03T11:01:57;3.65;;;3.22;;
75005;SDS011;63553;51.814;4.600;2023-03-03T11:07:10;5.13;;;3.30;;
75005;SDS011;63553;51.814;4.600;2023-03-03T11:09:51;14.43;;;3.20;;
75005;SDS011;63553;51.814;4.600;2023-03-03T11:20:45;5.82;;;3.42;;
75005;SDS011;63553;51.814;4.600;2023-03-03T11:29:21;4.90;;;2.42;;
75005;SDS011;63553;51.814;4.600;2023-03-03T11:31:59;4.28;;;2.50;;
75005;SDS011;63553;51.814;4.600;2023-03-03T11:37:10;3.45;;;2.70;;
75005;SDS011;63553;51.814;4.600;2023-03-03T11:39:41;3.25;;;2.15;;
75005;SDS011;63553;51.814;4.600;2023-03-03T11:44:59;3.25;;;2.58;;
75005;SDS011;63553;51.814;4.600;2023-03-03T11:50:21;4.07;;;2.30;;
75005;SDS011;63553;51.814;4.600;2023-03-03T11:55:41;4.00;;;2.10;;
75005;SDS011;63553;51.814;4.600;2023-03-03T11:58:15;2.53;;;1.95;;
75005;SDS011;63553;51.814;4.600;2023-03-03T12:03:40;3.70;;;2.10;;
75005;SDS011;63553;51.814;4.600;2023-03-03T12:20:02;4.07;;;2.20;;
75005;SDS011;63553;51.814;4.600;2023-03-03T12:22:59;2.10;;;1.88;;
75005;SDS011;63553;51.814;4.600;2023-03-03T12:43:27;1.60;;;1.50;;
75005;SDS011;63553;51.814;4.600;2023-03-03T12:48:39;1.50;;;1.40;;
75005;SDS011;63553;51.814;4.600;2023-03-03T12:56:31;2.10;;;1.83;;
75005;SDS011;63553;51.814;4.600;2023-03-03T13:01:54;4.82;;;1.67;;
75005;SDS011;63553;51.814;4.600;2023-03-03T13:07:18;2.30;;;1.23;;
75005;SDS011;63553;51.814;4.600;2023-03-03T13:12:49;1.77;;;1.23;;
75005;SDS011;63553;51.814;4.600;2023-03-03T13:17:56;1.60;;;1.25;;
75005;SDS011;63553;51.814;4.600;2023-03-03T13:20:34;2.03;;;1.20;;
75005;SDS011;63553;51.814;4.600;2023-03-03T13:31:34;1.73;;;1.20;;
75005;SDS011;63553;51.814;4.600;2023-03-03T13:34:03;1.63;;;1.30;;
75005;SDS011;63553;51.814;4.600;2023-03-03T13:39:20;1.20;;;1.20;;
75005;SDS011;63553;51.814;4.600;2023-03-03T13:41:49;1.40;;;1.30;;
75005;SDS011;63553;51.814;4.600;2023-03-03T13:44:30;2.42;;;1.45;;
75005;SDS011;63553;51.814;4.600;2023-03-03T13:52:28;1.92;;;1.10;;
75005;SDS011;63553;51.814;4.600;2023-03-03T13:55:05;1.40;;;1.25;;
75005;SDS011;63553;51.814;4.600;2023-03-03T14:00:35;3.55;;;1.92;;
75005;SDS011;63553;51.814;4.600;2023-03-03T14:06:24;1.70;;;1.38;;
75005;SDS011;63553;51.814;4.600;2023-03-03T14:14:44;1.48;;;1.38;;
75005;SDS011;63553;51.814;4.600;2023-03-03T14:17:20;1.50;;;1.40;;
75005;SDS011;63553;51.814;4.600;2023-03-03T14:23:01;5.00;;;1.63;;
75005;SDS011;63553;51.814;4.600;2023-03-03T14:28:16;1.60;;;1.50;;
75005;SDS011;63553;51.814;4.600;2023-03-03T14:30:44;1.63;;;1.25;;
75005;SDS011;63553;51.814;4.600;2023-03-03T14:36:10;1.57;;;1.20;;
75005;SDS011;63553;51.814;4.600;2023-03-03T14:43:41;1.65;;;1.38;;
75005;SDS011;63553;51.814;4.600;2023-03-03T14:48:54;1.40;;;1.30;;
75005;SDS011;63553;51.814;4.600;2023-03-03T14:54:07;3.08;;;1.60;;
75005;SDS011;63553;51.814;4.600;2023-03-03T14:56:39;1.40;;;1.30;;
75005;SDS011;63553;51.814;4.600;2023-03-03T14:59:22;1.33;;;0.90;;
75005;SDS011;63553;51.814;4.600;2023-03-03T15:04:46;1.23;;;1.05;;
75005;SDS011;63553;51.814;4.600;2023-03-03T15:07:30;1.60;;;1.50;;
75005;SDS011;63553;51.814;4.600;2023-03-03T15:09:59;2.00;;;1.50;;
75005;SDS011;63553;51.814;4.600;2023-03-03T15:12:25;1.97;;;1.30;;
75005;SDS011;63553;51.814;4.600;2023-03-03T15:17:32;1.90;;;1.50;;
75005;SDS011;63553;51.814;4.600;2023-03-03T15:25:32;1.58;;;1.48;;
75005;SDS011;63553;51.814;4.600;2023-03-03T15:34:25;3.13;;;1.38;;
75005;SDS011;63553;51.814;4.600;2023-03-03T15:36:56;1.48;;;1.30;;
75005;SDS011;63553;51.814;4.600;2023-03-03T15:39:38;2.22;;;1.30;;
75005;SDS011;63553;51.814;4.600;2023-03-03T15:47:54;4.43;;;1.40;;
75005;SDS011;63553;51.814;4.600;2023-03-03T15:50:39;1.60;;;1.20;;
75005;SDS011;63553;51.814;4.600;2023-03-03T16:01:44;2.42;;;1.58;;
75005;SDS011;63553;51.814;4.600;2023-03-03T16:04:23;2.30;;;1.50;;
75005;SDS011;63553;51.814;4.600;2023-03-03T16:07:01;13.80;;;2.28;;
75005;SDS011;63553;51.814;4.600;2023-03-03T16:09:41;2.25;;;1.33;;
75005;SDS011;63553;51.814;4.600;2023-03-03T16:12:23;7.05;;;1.20;;
75005;SDS011;63553;51.814;4.600;2023-03-03T16:22:42;2.43;;;1.70;;
75005;SDS011;63553;51.814;4.600;2023-03-03T16:25:28;2.63;;;2.10;;
75005;SDS011;63553;51.814;4.600;2023-03-03T16:28:24;1.38;;;1.30;;
75005;SDS011;63553;51.814;4.600;2023-03-03T16:30:51;1.60;;;1.50;;
75005;SDS011;63553;51.814;4.600;2023-03-03T16:33:36;4.25;;;1.98;;
75005;SDS011;63553;51.814;4.600;2023-03-03T16:52:41;15.25;;;10.52;;
75005;SDS011;63553;51.814;4.600;2023-03-03T16:55:14;8.90;;;7.03;;
75005;SDS011;63553;51.814;4.600;2023-03-03T16:57:52;10.55;;;6.40;;
75005;SDS011;63553;51.814;4.600;2023-03-03T17:00:27;32.33;;;20.88;;
75005;SDS011;63553;51.814;4.600;2023-03-03T17:05:28;39.03;;;24.77;;
75005;SDS011;63553;51.814;4.600;2023-03-03T17:15:44;13.30;;;9.68;;
75005;SDS011;63553;51.814;4.600;2023-03-03T17:20:57;20.55;;;15.30;;
75005;SDS011;63553;51.814;4.600;2023-03-03T17:34:05;13.25;;;9.57;;
75005;SDS011;63553;51.814;4.600;2023-03-03T17:39:39;11.00;;;7.97;;
75005;SDS011;63553;51.814;4.600;2023-03-03T17:45:07;9.75;;;5.75;;
75005;SDS011;63553;51.814;4.600;2023-03-03T17:50:52;9.23;;;6.60;;
75005;SDS011;63553;51.814;4.600;2023-03-03T17:56:15;13.38;;;8.73;;
75005;SDS011;63553;51.814;4.600;2023-03-03T18:01:25;10.30;;;6.55;;
75005;SDS011;63553;51.814;4.600;2023-03-03T18:20:27;15.65;;;6.95;;
75005;SDS011;63553;51.814;4.600;2023-03-03T18:23:01;12.05;;;6.22;;
75005;SDS011;63553;51.814;4.600;2023-03-03T18:29:04;10.93;;;4.88;;
75005;SDS011;63553;51.814;4.600;2023-03-03T18:31:47;7.00;;;2.55;;
75005;SDS011;63553;51.814;4.600;2023-03-03T18:37:37;12.73;;;5.57;;
75005;SDS011;63553;51.814;4.600;2023-03-03T18:45:09;8.52;;;4.55;;
75005;SDS011;63553;51.814;4.600;2023-03-03T18:50:38;7.25;;;3.50;;
75005;SDS011;63553;51.814;4.600;2023-03-03T18:55:51;8.75;;;3.55;;
75005;SDS011;63553;51.814;4.600;2023-03-03T19:00:45;12.43;;;4.90;;
75005;SDS011;63553;51.814;4.600;2023-03-03T19:06:11;7.55;;;3.88;;
75005;SDS011;63553;51.814;4.600;2023-03-03T19:08:53;8.95;;;3.83;;
75005;SDS011;63553;51.814;4.600;2023-03-03T19:16:52;9.57;;;2.78;;
75005;SDS011;63553;51.814;4.600;2023-03-03T19:19:19;8.73;;;4.10;;
75005;SDS011;63553;51.814;4.600;2023-03-03T19:21:49;9.23;;;2.75;;
75005;SDS011;63553;51.814;4.600;2023-03-03T19:24:29;10.55;;;4.35;;
75005;SDS011;63553;51.814;4.600;2023-03-03T19:27:02;9.07;;;3.45;;
75005;SDS011;63553;51.814;4.600;2023-03-03T19:29:59;9.30;;;4.57;;
75005;SDS011;63553;51.814;4.600;2023-03-03T19:43:41;15.68;;;7.55;;
75005;SDS011;63553;51.814;4.600;2023-03-03T19:46:31;4.72;;;1.92;;
75005;SDS011;63553;51.814;4.600;2023-03-03T19:51:55;8.68;;;2.92;;
75005;SDS011;63553;51.814;4.600;2023-03-03T19:54:44;10.82;;;2.60;;
75005;SDS011;63553;51.814;4.600;2023-03-03T19:57:18;10.10;;;3.05;;
75005;SDS011;63553;51.814;4.600;2023-03-03T20:05:47;12.40;;;4.60;;
75005;SDS011;63553;51.814;4.600;2023-03-03T20:14:25;9.02;;;3.00;;
75005;SDS011;63553;51.814;4.600;2023-03-03T20:25:13;8.60;;;4.20;;
75005;SDS011;63553;51.814;4.600;2023-03-03T20:34:12;22.13;;;9.13;;
75005;SDS011;63553;51.814;4.600;2023-03-03T20:44:28;22.85;;;8.88;;
75005;SDS011;63553;51.814;4.600;2023-03-03T20:50:17;24.02;;;9.18;;
75005;SDS011;63553;51.814;4.600;2023-03-03T20:52:58;19.83;;;8.93;;
75005;SDS011;63553;51.814;4.600;2023-03-03T20:58:30;21.35;;;9.40;;
75005;SDS011;63553;51.814;4.600;2023-03-03T21:01:08;21.17;;;9.65;;
75005;SDS011;63553;51.814;4.600;2023-03-03T21:06:10;23.83;;;9.32;;
75005;SDS011;63553;51.814;4.600;2023-03-03T21:08:43;28.08;;;10.57;;
75005;SDS011;63553;51.814;4.600;2023-03-03T21:11:42;22.98;;;8.93;;
75005;SDS011;63553;51.814;4.600;2023-03-03T21:16:51;20.25;;;9.55;;
75005;SDS011;63553;51.814;4.600;2023-03-03T21:19:31;17.70;;;9.60;;
75005;SDS011;63553;51.814;4.600;2023-03-03T21:21:58;22.75;;;9.10;;
75005;SDS011;63553;51.814;4.600;2023-03-03T21:27:31;20.92;;;9.00;;
75005;SDS011;63553;51.814;4.600;2023-03-03T21:30:03;21.27;;;9.45;;
75005;SDS011;63553;51.814;4.600;2023-03-03T21:32:35;21.20;;;9.27;;
75005;SDS011;63553;51.814;4.600;2023-03-03T21:35:07;18.73;;;8.43;;
75005;SDS011;63553;51.814;4.600;2023-03-03T21:37:48;19.90;;;8.50;;
75005;SDS011;63553;51.814;4.600;2023-03-03T21:40:24;23.42;;;10.20;;
75005;SDS011;63553;51.814;4.600;2023-03-03T21:42:52;15.68;;;8.73;;
75005;SDS011;63553;51.814;4.600;2023-03-03T21:45:19;20.45;;;8.52;;
75005;SDS011;63553;51.814;4.600;2023-03-03T21:47:45;19.23;;;8.18;;
75005;SDS011;63553;51.814;4.600;2023-03-03T21:50:12;17.10;;;8.45;;
75005;SDS011;63553;51.814;4.600;2023-03-03T21:52:38;18.67;;;8.07;;
75005;SDS011;63553;51.814;4.600;2023-03-03T21:55:04;17.38;;;8.35;;
75005;SDS011;63553;51.814;4.600;2023-03-03T21:57:29;19.08;;;8.45;;
75005;SDS011;63553;51.814;4.600;2023-03-03T21:59:55;19.25;;;8.30;;
75005;SDS011;63553;51.814;4.600;2023-03-03T22:02:20;18.13;;;8.98;;
75005;SDS011;63553;51.814;4.600;2023-03-03T22:04:45;16.05;;;8.18;;
75005;SDS011;63553;51.814;4.600;2023-03-03T22:07:11;20.13;;;8.10;;
75005;SDS011;63553;51.814;4.600;2023-03-03T22:09:36;14.65;;;7.65;;
75005;SDS011;63553;51.814;4.600;2023-03-03T22:12:03;15.75;;;8.20;;